• Join FlightAware (Why Join?)
  • Login
  • US Flag 
07:22PM EDT


 

Airport Tracker/Info


-or-


 

Live Flight TrackerFlight Track Log ✈ DAL6034 ✈ 24-Apr-2013 ✈ KLGA - KMHT

Flight Track Log - Related Links

Times and Time Zones

All times are in EDT time to prevent confusion due to time zone crossing. See the DAL6034 flight status page for this flight to view local times or setup timezone preferences in your user account.

Time Position Orientation Groundspeed Altitude Reporting Facility
EDT Latitude Longitude Course Direction KTS MPH feet Rate Location/Type
03:29PM 40.7667 -73.8500 27° Northeast 154 177 1,000  Level New York TRACON
03:30PM 40.7667 -73.7833 90° East 212 244 2,800 2,040 Climbing New York TRACON
03:32PM 40.8908 -73.7003 27° Northeast 247 284 7,100 2,220 Climbing Boston Center
03:33PM 41.2128 -73.5139 33° Northeast  Level FlightAware Approximate
03:33PM 40.9664 -73.6522 26° Northeast 270 311 9,700  Level Boston Center
03:34PM 41.3022 -73.4430 27° Northeast  Level FlightAware Approximate
03:34PM 41.0419 -73.6014 27° Northeast 299 344 11,600  Level Boston Center
03:35PM 41.1342 -73.5397 27° Northeast 323 372 13,200 1,620 Climbing Boston Center
03:36PM 41.2181 -73.4886 25° Northeast 341 392 14,900 1,560 Climbing Boston Center
03:37PM 41.3144 -73.4211 28° Northeast 350 403 16,400 960 Climbing Boston Center
03:38PM 41.4047 -73.3644 25° Northeast 372 428 16,900 240 Climbing Boston Center
03:39PM 41.5031 -73.2856 31° Northeast 406 467 16,900  Level Boston Center
03:40PM 41.6125 -73.1397 45° Northeast 422 486 17,000  Climbing Boston Center
03:41PM 41.7131 -73.0547 32° Northeast 422 486 17,000  Level Boston Center
03:42PM 41.7947 -72.9969 28° Northeast 416 479 17,000  Level Boston Center
03:43PM 41.9097 -72.9200 26° Northeast 416 479 17,000  Level Boston Center
03:44PM 42.0119 -72.8453 29° Northeast 416 479 17,000  Level Boston Center
03:45PM 42.1164 -72.7731 27° Northeast 416 479 17,000 -120 Level Boston Center
03:46PM 42.2292 -72.6925 28° Northeast 416 479 16,800 -600 Descending Boston Center
03:47PM 42.3314 -72.6142 30° Northeast 416 479 15,800 -1,020 Descending Boston Center
03:48PM 42.4044 -72.5189 44° Northeast 411 473 14,800 -1,200 Descending Boston Center
03:49PM 42.4817 -72.4036 48° Northeast 406 467 13,400 -1,500 Descending Boston Center
03:50PM 42.5544 -72.3019 46° Northeast 392 451 11,900 -1,500 Descending Boston Center
03:51PM 42.6169 -72.2117 47° Northeast 345 397 10,400 -1,440 Descending Boston Center
03:52PM 42.6689 -72.1042 57° Northeast 313 360 9,100 -1,020 Descending Boston Center
03:53PM 42.7122 -72.0247 53° Northeast 291 335 8,400 -1,380 Descending Boston Center
03:54PM 42.7661 -71.9283 53° Northeast 285 328 6,400 -1,680 Descending Boston Center
03:55PM 42.8031 -71.8486 58° Northeast 280 322 5,100 -780 Descending Boston Center
03:56PM 42.8589 -71.7689 46° Northeast 262 302 4,900 -540 Descending Boston Center
03:57PM 42.9067 -71.7031 45° Northeast 262 302 4,100 -900 Descending Boston Center
03:58PM 42.9644 -71.6258 44° Northeast 262 302 3,100 -840 Descending Boston Center
03:59PM 43.0033 -71.5600 51° Northeast 247 284 2,500 -600 Descending Boston Center